sensor_id;sensor_type;location;lat;lon;timestamp;P1;durP1;ratioP1;P2;durP2;ratioP2
74375;SDS011;62812;55.188;61.302;2022-10-03T00:02:19;14.80;;;2.78;;
74375;SDS011;62812;55.188;61.302;2022-10-03T00:05:00;7.05;;;2.25;;
74375;SDS011;62812;55.188;61.302;2022-10-03T00:07:45;5.78;;;2.40;;
74375;SDS011;62812;55.188;61.302;2022-10-03T00:10:22;6.57;;;2.70;;
74375;SDS011;62812;55.188;61.302;2022-10-03T00:13:02;6.82;;;2.65;;
74375;SDS011;62812;55.188;61.302;2022-10-03T00:15:40;6.25;;;2.35;;
74375;SDS011;62812;55.188;61.302;2022-10-03T00:18:18;6.88;;;2.60;;
74375;SDS011;62812;55.188;61.302;2022-10-03T00:21:02;7.03;;;2.63;;
74375;SDS011;62812;55.188;61.302;2022-10-03T00:23:43;6.68;;;2.45;;
74375;SDS011;62812;55.188;61.302;2022-10-03T00:26:18;7.25;;;2.70;;
74375;SDS011;62812;55.188;61.302;2022-10-03T00:29:01;5.65;;;2.38;;
74375;SDS011;62812;55.188;61.302;2022-10-03T00:31:44;9.10;;;2.58;;
74375;SDS011;62812;55.188;61.302;2022-10-03T00:34:21;5.07;;;2.40;;
74375;SDS011;62812;55.188;61.302;2022-10-03T00:37:02;5.57;;;2.50;;
74375;SDS011;62812;55.188;61.302;2022-10-03T00:39:44;8.20;;;2.40;;
74375;SDS011;62812;55.188;61.302;2022-10-03T00:42:29;7.85;;;2.55;;
74375;SDS011;62812;55.188;61.302;2022-10-03T00:51:56;8.10;;;2.58;;
74375;SDS011;62812;55.188;61.302;2022-10-03T00:57:25;6.43;;;2.50;;
74375;SDS011;62812;55.188;61.302;2022-10-03T01:00:14;7.40;;;2.88;;
74375;SDS011;62812;55.188;61.302;2022-10-03T01:03:04;6.60;;;2.50;;
74375;SDS011;62812;55.188;61.302;2022-10-03T01:05:53;6.65;;;2.70;;
74375;SDS011;62812;55.188;61.302;2022-10-03T01:08:41;7.18;;;2.90;;
74375;SDS011;62812;55.188;61.302;2022-10-03T01:13:56;8.35;;;2.70;;
74375;SDS011;62812;55.188;61.302;2022-10-03T01:16:38;7.88;;;2.60;;
74375;SDS011;62812;55.188;61.302;2022-10-03T01:19:16;6.82;;;2.58;;
74375;SDS011;62812;55.188;61.302;2022-10-03T01:22:00;7.28;;;2.47;;
74375;SDS011;62812;55.188;61.302;2022-10-03T01:24:49;7.07;;;2.50;;
74375;SDS011;62812;55.188;61.302;2022-10-03T01:27:23;8.18;;;2.17;;
74375;SDS011;62812;55.188;61.302;2022-10-03T01:29:58;12.02;;;2.55;;
74375;SDS011;62812;55.188;61.302;2022-10-03T01:32:46;9.80;;;2.70;;
74375;SDS011;62812;55.188;61.302;2022-10-03T01:35:23;9.32;;;2.97;;
74375;SDS011;62812;55.188;61.302;2022-10-03T01:37:58;8.32;;;2.60;;
74375;SDS011;62812;55.188;61.302;2022-10-03T01:40:34;6.75;;;2.58;;
74375;SDS011;62812;55.188;61.302;2022-10-03T01:43:08;10.75;;;2.35;;
74375;SDS011;62812;55.188;61.302;2022-10-03T01:45:47;9.57;;;3.08;;
74375;SDS011;62812;55.188;61.302;2022-10-03T01:48:21;11.18;;;2.58;;
74375;SDS011;62812;55.188;61.302;2022-10-03T01:50:58;16.45;;;3.08;;
74375;SDS011;62812;55.188;61.302;2022-10-03T01:53:31;7.78;;;2.40;;
74375;SDS011;62812;55.188;61.302;2022-10-03T01:56:07;14.20;;;2.90;;
74375;SDS011;62812;55.188;61.302;2022-10-03T01:58:44;16.33;;;3.13;;
74375;SDS011;62812;55.188;61.302;2022-10-03T02:01:20;8.30;;;2.42;;
74375;SDS011;62812;55.188;61.302;2022-10-03T02:03:54;10.77;;;2.67;;
74375;SDS011;62812;55.188;61.302;2022-10-03T02:06:32;9.30;;;2.85;;
74375;SDS011;62812;55.188;61.302;2022-10-03T02:09:09;10.00;;;2.80;;
74375;SDS011;62812;55.188;61.302;2022-10-03T02:11:54;12.27;;;3.05;;
74375;SDS011;62812;55.188;61.302;2022-10-03T02:14:27;11.82;;;3.30;;
74375;SDS011;62812;55.188;61.302;2022-10-03T02:17:01;6.93;;;2.67;;
74375;SDS011;62812;55.188;61.302;2022-10-03T02:19:35;13.27;;;2.72;;
74375;SDS011;62812;55.188;61.302;2022-10-03T02:22:13;6.57;;;2.70;;
74375;SDS011;62812;55.188;61.302;2022-10-03T02:24:42;6.32;;;2.55;;
74375;SDS011;62812;55.188;61.302;2022-10-03T02:27:25;12.93;;;3.10;;
74375;SDS011;62812;55.188;61.302;2022-10-03T02:30:10;11.65;;;2.63;;
74375;SDS011;62812;55.188;61.302;2022-10-03T02:32:52;11.60;;;2.58;;
74375;SDS011;62812;55.188;61.302;2022-10-03T02:38:44;7.20;;;2.58;;
74375;SDS011;62812;55.188;61.302;2022-10-03T02:45:11;7.07;;;2.67;;
74375;SDS011;62812;55.188;61.302;2022-10-03T02:48:20;9.07;;;2.60;;
74375;SDS011;62812;55.188;61.302;2022-10-03T02:57:31;9.30;;;2.78;;
74375;SDS011;62812;55.188;61.302;2022-10-03T03:00:28;10.55;;;2.80;;
74375;SDS011;62812;55.188;61.302;2022-10-03T03:03:05;9.25;;;2.55;;
74375;SDS011;62812;55.188;61.302;2022-10-03T03:06:07;11.93;;;2.75;;
74375;SDS011;62812;55.188;61.302;2022-10-03T03:08:56;8.18;;;2.80;;
74375;SDS011;62812;55.188;61.302;2022-10-03T03:11:38;15.70;;;3.13;;
74375;SDS011;62812;55.188;61.302;2022-10-03T03:17:27;6.75;;;2.60;;
74375;SDS011;62812;55.188;61.302;2022-10-03T03:20:02;12.15;;;3.05;;
74375;SDS011;62812;55.188;61.302;2022-10-03T03:22:55;9.48;;;3.03;;
74375;SDS011;62812;55.188;61.302;2022-10-03T03:25:44;7.78;;;2.80;;
74375;SDS011;62812;55.188;61.302;2022-10-03T03:28:32;11.38;;;2.83;;
74375;SDS011;62812;55.188;61.302;2022-10-03T03:31:08;8.75;;;2.50;;
74375;SDS011;62812;55.188;61.302;2022-10-03T03:33:49;12.25;;;3.10;;
74375;SDS011;62812;55.188;61.302;2022-10-03T03:36:27;9.00;;;2.55;;
74375;SDS011;62812;55.188;61.302;2022-10-03T03:39:05;6.72;;;2.83;;
74375;SDS011;62812;55.188;61.302;2022-10-03T03:42:00;7.07;;;2.78;;
74375;SDS011;62812;55.188;61.302;2022-10-03T03:44:46;12.60;;;2.97;;
74375;SDS011;62812;55.188;61.302;2022-10-03T03:47:43;10.52;;;2.80;;
74375;SDS011;62812;55.188;61.302;2022-10-03T03:50:24;8.43;;;2.83;;
74375;SDS011;62812;55.188;61.302;2022-10-03T03:53:05;6.97;;;3.05;;
74375;SDS011;62812;55.188;61.302;2022-10-03T03:56:18;13.32;;;3.30;;
74375;SDS011;62812;55.188;61.302;2022-10-03T03:59:01;7.38;;;2.90;;
74375;SDS011;62812;55.188;61.302;2022-10-03T04:01:44;9.23;;;2.78;;
74375;SDS011;62812;55.188;61.302;2022-10-03T04:04:36;6.90;;;2.67;;
74375;SDS011;62812;55.188;61.302;2022-10-03T04:07:15;7.57;;;3.08;;
74375;SDS011;62812;55.188;61.302;2022-10-03T04:10:11;7.97;;;2.28;;
74375;SDS011;62812;55.188;61.302;2022-10-03T04:13:00;12.95;;;3.28;;
74375;SDS011;62812;55.188;61.302;2022-10-03T04:15:42;10.90;;;3.35;;
74375;SDS011;62812;55.188;61.302;2022-10-03T04:18:30;9.30;;;2.53;;
74375;SDS011;62812;55.188;61.302;2022-10-03T04:21:36;7.95;;;3.30;;
74375;SDS011;62812;55.188;61.302;2022-10-03T04:27:27;8.95;;;3.17;;
74375;SDS011;62812;55.188;61.302;2022-10-03T04:30:14;10.85;;;2.90;;
74375;SDS011;62812;55.188;61.302;2022-10-03T04:32:47;9.18;;;3.03;;
74375;SDS011;62812;55.188;61.302;2022-10-03T04:35:47;8.57;;;2.97;;
74375;SDS011;62812;55.188;61.302;2022-10-03T04:38:24;8.65;;;2.80;;
74375;SDS011;62812;55.188;61.302;2022-10-03T04:41:07;10.13;;;3.00;;
74375;SDS011;62812;55.188;61.302;2022-10-03T04:43:53;8.98;;;3.15;;
74375;SDS011;62812;55.188;61.302;2022-10-03T04:46:28;8.27;;;2.50;;
74375;SDS011;62812;55.188;61.302;2022-10-03T04:49:02;10.55;;;2.80;;
74375;SDS011;62812;55.188;61.302;2022-10-03T04:51:40;9.02;;;2.80;;
74375;SDS011;62812;55.188;61.302;2022-10-03T04:54:16;6.57;;;2.60;;
74375;SDS011;62812;55.188;61.302;2022-10-03T04:56:50;8.15;;;2.83;;
74375;SDS011;62812;55.188;61.302;2022-10-03T04:59:26;7.30;;;3.20;;
74375;SDS011;62812;55.188;61.302;2022-10-03T05:02:03;6.90;;;2.63;;
74375;SDS011;62812;55.188;61.302;2022-10-03T05:04:42;10.98;;;3.17;;
74375;SDS011;62812;55.188;61.302;2022-10-03T05:07:19;10.35;;;2.55;;
74375;SDS011;62812;55.188;61.302;2022-10-03T05:09:55;9.85;;;2.90;;
74375;SDS011;62812;55.188;61.302;2022-10-03T05:12:28;11.13;;;3.10;;
74375;SDS011;62812;55.188;61.302;2022-10-03T05:15:11;9.05;;;2.80;;
74375;SDS011;62812;55.188;61.302;2022-10-03T05:17:47;14.25;;;2.92;;
74375;SDS011;62812;55.188;61.302;2022-10-03T05:20:33;8.63;;;2.40;;
74375;SDS011;62812;55.188;61.302;2022-10-03T05:23:16;8.52;;;2.72;;
74375;SDS011;62812;55.188;61.302;2022-10-03T05:25:52;11.55;;;2.55;;
74375;SDS011;62812;55.188;61.302;2022-10-03T05:28:24;9.35;;;2.85;;
74375;SDS011;62812;55.188;61.302;2022-10-03T05:31:02;12.60;;;2.90;;
74375;SDS011;62812;55.188;61.302;2022-10-03T05:33:44;9.07;;;2.85;;
74375;SDS011;62812;55.188;61.302;2022-10-03T05:36:19;11.20;;;2.80;;
74375;SDS011;62812;55.188;61.302;2022-10-03T05:39:14;13.20;;;2.75;;
74375;SDS011;62812;55.188;61.302;2022-10-03T05:42:10;7.07;;;2.67;;
74375;SDS011;62812;55.188;61.302;2022-10-03T05:44:49;6.50;;;2.42;;
74375;SDS011;62812;55.188;61.302;2022-10-03T05:47:27;10.43;;;2.70;;
74375;SDS011;62812;55.188;61.302;2022-10-03T05:53:15;9.68;;;2.45;;
74375;SDS011;62812;55.188;61.302;2022-10-03T05:55:58;8.27;;;2.25;;
74375;SDS011;62812;55.188;61.302;2022-10-03T05:58:33;7.93;;;2.42;;
74375;SDS011;62812;55.188;61.302;2022-10-03T06:04:20;8.75;;;2.45;;
74375;SDS011;62812;55.188;61.302;2022-10-03T06:07:18;8.88;;;2.10;;
74375;SDS011;62812;55.188;61.302;2022-10-03T06:10:10;7.85;;;2.20;;
74375;SDS011;62812;55.188;61.302;2022-10-03T06:18:30;7.60;;;2.25;;
74375;SDS011;62812;55.188;61.302;2022-10-03T06:24:40;9.30;;;2.22;;
74375;SDS011;62812;55.188;61.302;2022-10-03T06:27:41;9.82;;;2.83;;
74375;SDS011;62812;55.188;61.302;2022-10-03T06:36:43;6.85;;;2.05;;
74375;SDS011;62812;55.188;61.302;2022-10-03T06:42:56;10.32;;;2.10;;
74375;SDS011;62812;55.188;61.302;2022-10-03T06:45:48;5.85;;;1.80;;
74375;SDS011;62812;55.188;61.302;2022-10-03T06:51:40;6.35;;;1.67;;
74375;SDS011;62812;55.188;61.302;2022-10-03T06:54:44;10.90;;;1.95;;
74375;SDS011;62812;55.188;61.302;2022-10-03T06:57:35;8.55;;;1.75;;
74375;SDS011;62812;55.188;61.302;2022-10-03T07:00:17;9.90;;;2.22;;
74375;SDS011;62812;55.188;61.302;2022-10-03T07:02:52;10.57;;;2.28;;
74375;SDS011;62812;55.188;61.302;2022-10-03T07:05:55;6.93;;;1.92;;
74375;SDS011;62812;55.188;61.302;2022-10-03T07:12:10;6.90;;;2.00;;
74375;SDS011;62812;55.188;61.302;2022-10-03T07:15:29;5.47;;;1.70;;
74375;SDS011;62812;55.188;61.302;2022-10-03T07:18:13;7.72;;;2.03;;
74375;SDS011;62812;55.188;61.302;2022-10-03T07:21:12;7.75;;;1.90;;
74375;SDS011;62812;55.188;61.302;2022-10-03T07:24:18;8.27;;;2.20;;
74375;SDS011;62812;55.188;61.302;2022-10-03T07:27:22;5.53;;;1.73;;
74375;SDS011;62812;55.188;61.302;2022-10-03T07:30:11;6.28;;;1.58;;
74375;SDS011;62812;55.188;61.302;2022-10-03T07:33:05;8.88;;;1.80;;
74375;SDS011;62812;55.188;61.302;2022-10-03T07:36:04;5.80;;;2.28;;
74375;SDS011;62812;55.188;61.302;2022-10-03T07:39:25;7.15;;;2.20;;
74375;SDS011;62812;55.188;61.302;2022-10-03T07:48:03;11.23;;;2.15;;
74375;SDS011;62812;55.188;61.302;2022-10-03T07:53:45;6.47;;;1.95;;
74375;SDS011;62812;55.188;61.302;2022-10-03T07:56:49;7.22;;;1.70;;
74375;SDS011;62812;55.188;61.302;2022-10-03T08:00:03;7.32;;;1.60;;
74375;SDS011;62812;55.188;61.302;2022-10-03T08:06:17;5.82;;;1.73;;
74375;SDS011;62812;55.188;61.302;2022-10-03T08:09:03;11.77;;;1.90;;
74375;SDS011;62812;55.188;61.302;2022-10-03T08:14:54;8.88;;;2.05;;
74375;SDS011;62812;55.188;61.302;2022-10-03T08:17:40;8.85;;;2.35;;
74375;SDS011;62812;55.188;61.302;2022-10-03T08:20:55;6.70;;;1.55;;
74375;SDS011;62812;55.188;61.302;2022-10-03T08:23:32;9.13;;;2.33;;
74375;SDS011;62812;55.188;61.302;2022-10-03T08:26:26;6.28;;;1.80;;
74375;SDS011;62812;55.188;61.302;2022-10-03T08:35:30;6.35;;;1.80;;
74375;SDS011;62812;55.188;61.302;2022-10-03T08:38:32;8.90;;;1.77;;
74375;SDS011;62812;55.188;61.302;2022-10-03T08:44:54;8.15;;;2.00;;
74375;SDS011;62812;55.188;61.302;2022-10-03T08:47:37;6.68;;;1.90;;
74375;SDS011;62812;55.188;61.302;2022-10-03T08:50:32;7.80;;;2.13;;
74375;SDS011;62812;55.188;61.302;2022-10-03T08:56:09;6.10;;;1.73;;
74375;SDS011;62812;55.188;61.302;2022-10-03T09:01:39;9.65;;;2.22;;
74375;SDS011;62812;55.188;61.302;2022-10-03T09:04:45;10.50;;;2.08;;
74375;SDS011;62812;55.188;61.302;2022-10-03T09:07:50;8.43;;;2.08;;
74375;SDS011;62812;55.188;61.302;2022-10-03T09:10:51;8.40;;;2.00;;
74375;SDS011;62812;55.188;61.302;2022-10-03T09:16:39;8.48;;;1.90;;
74375;SDS011;62812;55.188;61.302;2022-10-03T09:19:26;9.65;;;1.70;;
74375;SDS011;62812;55.188;61.302;2022-10-03T09:22:19;14.23;;;2.05;;
74375;SDS011;62812;55.188;61.302;2022-10-03T09:25:15;7.25;;;1.63;;
74375;SDS011;62812;55.188;61.302;2022-10-03T09:30:54;14.20;;;1.77;;
74375;SDS011;62812;55.188;61.302;2022-10-03T09:39:43;10.82;;;1.90;;
74375;SDS011;62812;55.188;61.302;2022-10-03T09:42:38;8.70;;;2.25;;
74375;SDS011;62812;55.188;61.302;2022-10-03T09:48:53;7.47;;;1.67;;
74375;SDS011;62812;55.188;61.302;2022-10-03T09:51:49;6.95;;;1.55;;
74375;SDS011;62812;55.188;61.302;2022-10-03T09:57:46;7.30;;;1.90;;
74375;SDS011;62812;55.188;61.302;2022-10-03T10:00:33;7.78;;;1.75;;
74375;SDS011;62812;55.188;61.302;2022-10-03T10:03:42;10.80;;;1.80;;
74375;SDS011;62812;55.188;61.302;2022-10-03T10:06:32;19.35;;;2.78;;
74375;SDS011;62812;55.188;61.302;2022-10-03T10:09:32;8.48;;;2.00;;
74375;SDS011;62812;55.188;61.302;2022-10-03T10:15:15;4.53;;;1.50;;
74375;SDS011;62812;55.188;61.302;2022-10-03T10:24:14;7.78;;;2.47;;
74375;SDS011;62812;55.188;61.302;2022-10-03T10:30:20;5.70;;;1.70;;
74375;SDS011;62812;55.188;61.302;2022-10-03T10:36:09;13.45;;;1.83;;
74375;SDS011;62812;55.188;61.302;2022-10-03T10:39:04;4.72;;;1.40;;
74375;SDS011;62812;55.188;61.302;2022-10-03T10:45:43;7.28;;;1.70;;
74375;SDS011;62812;55.188;61.302;2022-10-03T10:51:38;6.55;;;1.58;;
74375;SDS011;62812;55.188;61.302;2022-10-03T10:54:41;10.25;;;1.30;;
74375;SDS011;62812;55.188;61.302;2022-10-03T11:00:38;8.40;;;1.48;;
74375;SDS011;62812;55.188;61.302;2022-10-03T11:09:46;7.57;;;1.48;;
74375;SDS011;62812;55.188;61.302;2022-10-03T11:12:32;5.10;;;1.05;;
74375;SDS011;62812;55.188;61.302;2022-10-03T11:15:51;10.30;;;1.45;;
74375;SDS011;62812;55.188;61.302;2022-10-03T11:31:21;8.50;;;1.27;;
74375;SDS011;62812;55.188;61.302;2022-10-03T11:37:27;4.47;;;1.33;;
74375;SDS011;62812;55.188;61.302;2022-10-03T11:40:03;15.45;;;2.55;;
74375;SDS011;62812;55.188;61.302;2022-10-03T11:42:48;6.10;;;1.33;;
74375;SDS011;62812;55.188;61.302;2022-10-03T11:45:24;5.15;;;1.50;;
74375;SDS011;62812;55.188;61.302;2022-10-03T11:50:47;6.22;;;1.63;;
74375;SDS011;62812;55.188;61.302;2022-10-03T11:56:23;6.40;;;1.35;;
74375;SDS011;62812;55.188;61.302;2022-10-03T12:01:43;7.07;;;0.93;;
74375;SDS011;62812;55.188;61.302;2022-10-03T12:04:24;8.80;;;1.35;;
74375;SDS011;62812;55.188;61.302;2022-10-03T12:07:00;3.72;;;1.30;;
74375;SDS011;62812;55.188;61.302;2022-10-03T12:09:58;9.77;;;1.30;;
74375;SDS011;62812;55.188;61.302;2022-10-03T12:12:33;7.35;;;1.40;;
74375;SDS011;62812;55.188;61.302;2022-10-03T12:15:13;10.65;;;1.52;;
74375;SDS011;62812;55.188;61.302;2022-10-03T12:17:49;12.23;;;1.70;;
74375;SDS011;62812;55.188;61.302;2022-10-03T12:20:22;7.63;;;1.95;;
74375;SDS011;62812;55.188;61.302;2022-10-03T12:22:54;6.05;;;1.50;;
74375;SDS011;62812;55.188;61.302;2022-10-03T12:25:28;13.25;;;1.65;;
74375;SDS011;62812;55.188;61.302;2022-10-03T12:28:00;7.18;;;1.33;;
74375;SDS011;62812;55.188;61.302;2022-10-03T12:30:42;10.45;;;1.60;;
74375;SDS011;62812;55.188;61.302;2022-10-03T12:33:27;12.60;;;1.77;;
74375;SDS011;62812;55.188;61.302;2022-10-03T12:36:08;12.48;;;3.03;;
74375;SDS011;62812;55.188;61.302;2022-10-03T12:38:42;6.78;;;1.50;;
74375;SDS011;62812;55.188;61.302;2022-10-03T12:41:33;11.10;;;1.88;;
74375;SDS011;62812;55.188;61.302;2022-10-03T12:44:23;18.42;;;4.78;;
74375;SDS011;62812;55.188;61.302;2022-10-03T12:47:02;15.45;;;1.85;;
74375;SDS011;62812;55.188;61.302;2022-10-03T12:52:17;6.38;;;1.63;;
74375;SDS011;62812;55.188;61.302;2022-10-03T12:54:50;10.10;;;2.50;;
74375;SDS011;62812;55.188;61.302;2022-10-03T12:57:32;7.47;;;2.05;;
74375;SDS011;62812;55.188;61.302;2022-10-03T13:00:14;8.98;;;1.70;;
74375;SDS011;62812;55.188;61.302;2022-10-03T13:02:46;10.13;;;2.00;;
74375;SDS011;62812;55.188;61.302;2022-10-03T13:05:32;9.32;;;2.03;;
74375;SDS011;62812;55.188;61.302;2022-10-03T13:08:15;8.00;;;1.85;;
74375;SDS011;62812;55.188;61.302;2022-10-03T13:10:54;11.45;;;2.22;;
74375;SDS011;62812;55.188;61.302;2022-10-03T13:13:25;10.38;;;2.47;;
74375;SDS011;62812;55.188;61.302;2022-10-03T13:18:43;12.18;;;2.13;;
74375;SDS011;62812;55.188;61.302;2022-10-03T13:21:17;10.10;;;2.00;;
74375;SDS011;62812;55.188;61.302;2022-10-03T13:23:48;9.95;;;2.00;;
74375;SDS011;62812;55.188;61.302;2022-10-03T13:26:19;6.60;;;1.60;;
74375;SDS011;62812;55.188;61.302;2022-10-03T13:28:59;5.60;;;1.50;;
74375;SDS011;62812;55.188;61.302;2022-10-03T13:31:50;8.82;;;1.83;;
74375;SDS011;62812;55.188;61.302;2022-10-03T13:34:26;7.55;;;1.70;;
74375;SDS011;62812;55.188;61.302;2022-10-03T13:39:25;10.68;;;1.95;;
74375;SDS011;62812;55.188;61.302;2022-10-03T13:42:00;6.85;;;1.90;;
74375;SDS011;62812;55.188;61.302;2022-10-03T13:44:35;12.15;;;2.30;;
74375;SDS011;62812;55.188;61.302;2022-10-03T13:47:07;12.10;;;2.00;;
74375;SDS011;62812;55.188;61.302;2022-10-03T13:49:45;7.22;;;1.88;;
74375;SDS011;62812;55.188;61.302;2022-10-03T13:52:18;9.70;;;2.10;;
74375;SDS011;62812;55.188;61.302;2022-10-03T13:55:09;7.50;;;1.95;;
74375;SDS011;62812;55.188;61.302;2022-10-03T13:58:06;11.70;;;2.17;;
74375;SDS011;62812;55.188;61.302;2022-10-03T14:01:01;9.40;;;2.65;;
74375;SDS011;62812;55.188;61.302;2022-10-03T14:03:39;6.88;;;1.90;;
74375;SDS011;62812;55.188;61.302;2022-10-03T14:06:17;6.97;;;2.10;;
74375;SDS011;62812;55.188;61.302;2022-10-03T14:08:54;11.05;;;2.40;;
74375;SDS011;62812;55.188;61.302;2022-10-03T14:11:34;7.85;;;2.20;;
74375;SDS011;62812;55.188;61.302;2022-10-03T14:14:22;9.65;;;2.53;;
74375;SDS011;62812;55.188;61.302;2022-10-03T14:17:00;10.23;;;2.35;;
74375;SDS011;62812;55.188;61.302;2022-10-03T14:19:36;7.15;;;2.25;;
74375;SDS011;62812;55.188;61.302;2022-10-03T14:22:16;13.20;;;2.17;;
74375;SDS011;62812;55.188;61.302;2022-10-03T14:25:00;13.95;;;2.90;;
74375;SDS011;62812;55.188;61.302;2022-10-03T14:27:40;7.57;;;2.40;;
74375;SDS011;62812;55.188;61.302;2022-10-03T14:30:12;16.27;;;2.83;;
74375;SDS011;62812;55.188;61.302;2022-10-03T14:32:47;11.80;;;2.97;;
74375;SDS011;62812;55.188;61.302;2022-10-03T14:35:33;13.27;;;2.95;;
74375;SDS011;62812;55.188;61.302;2022-10-03T14:38:19;11.10;;;2.67;;
74375;SDS011;62812;55.188;61.302;2022-10-03T14:41:16;14.57;;;4.72;;
74375;SDS011;62812;55.188;61.302;2022-10-03T14:43:47;8.65;;;2.47;;
74375;SDS011;62812;55.188;61.302;2022-10-03T14:46:16;13.27;;;2.90;;
74375;SDS011;62812;55.188;61.302;2022-10-03T14:48:45;11.63;;;2.85;;
74375;SDS011;62812;55.188;61.302;2022-10-03T14:51:15;7.65;;;2.60;;
74375;SDS011;62812;55.188;61.302;2022-10-03T14:53:46;11.38;;;2.97;;
74375;SDS011;62812;55.188;61.302;2022-10-03T14:56:20;7.85;;;2.50;;
74375;SDS011;62812;55.188;61.302;2022-10-03T14:58:51;7.75;;;2.33;;
74375;SDS011;62812;55.188;61.302;2022-10-03T15:01:19;11.25;;;3.00;;
74375;SDS011;62812;55.188;61.302;2022-10-03T15:03:53;7.78;;;2.70;;
74375;SDS011;62812;55.188;61.302;2022-10-03T15:06:30;8.15;;;2.25;;
74375;SDS011;62812;55.188;61.302;2022-10-03T15:08:59;11.55;;;2.28;;
74375;SDS011;62812;55.188;61.302;2022-10-03T15:11:29;7.88;;;2.40;;
74375;SDS011;62812;55.188;61.302;2022-10-03T15:14:00;8.68;;;3.00;;
74375;SDS011;62812;55.188;61.302;2022-10-03T15:16:32;9.82;;;2.58;;
74375;SDS011;62812;55.188;61.302;2022-10-03T15:19:04;7.07;;;1.67;;
74375;SDS011;62812;55.188;61.302;2022-10-03T15:21:34;8.10;;;1.92;;
74375;SDS011;62812;55.188;61.302;2022-10-03T15:24:06;11.07;;;2.17;;
74375;SDS011;62812;55.188;61.302;2022-10-03T15:26:39;12.10;;;2.50;;
74375;SDS011;62812;55.188;61.302;2022-10-03T15:29:13;8.35;;;2.00;;
74375;SDS011;62812;55.188;61.302;2022-10-03T15:31:45;12.07;;;2.08;;
74375;SDS011;62812;55.188;61.302;2022-10-03T15:34:16;9.05;;;1.77;;
74375;SDS011;62812;55.188;61.302;2022-10-03T15:36:46;7.93;;;1.83;;
74375;SDS011;62812;55.188;61.302;2022-10-03T15:39:16;9.20;;;2.10;;
74375;SDS011;62812;55.188;61.302;2022-10-03T15:41:48;6.65;;;1.65;;
74375;SDS011;62812;55.188;61.302;2022-10-03T15:44:22;5.72;;;1.77;;
74375;SDS011;62812;55.188;61.302;2022-10-03T15:46:57;5.63;;;1.63;;
74375;SDS011;62812;55.188;61.302;2022-10-03T15:49:30;8.35;;;1.50;;
74375;SDS011;62812;55.188;61.302;2022-10-03T15:52:05;4.60;;;1.40;;
74375;SDS011;62812;55.188;61.302;2022-10-03T15:54:37;6.03;;;2.17;;
74375;SDS011;62812;55.188;61.302;2022-10-03T15:57:04;10.20;;;1.55;;
74375;SDS011;62812;55.188;61.302;2022-10-03T15:59:34;8.43;;;1.90;;
74375;SDS011;62812;55.188;61.302;2022-10-03T16:02:05;8.23;;;1.73;;
74375;SDS011;62812;55.188;61.302;2022-10-03T16:04:41;9.38;;;1.85;;
74375;SDS011;62812;55.188;61.302;2022-10-03T16:07:10;4.07;;;1.60;;
74375;SDS011;62812;55.188;61.302;2022-10-03T16:09:45;8.27;;;1.65;;
74375;SDS011;62812;55.188;61.302;2022-10-03T16:15:19;9.43;;;1.90;;
74375;SDS011;62812;55.188;61.302;2022-10-03T16:17:53;15.60;;;2.40;;
74375;SDS011;62812;55.188;61.302;2022-10-03T16:20:22;6.55;;;1.58;;
74375;SDS011;62812;55.188;61.302;2022-10-03T16:22:51;8.70;;;1.83;;
74375;SDS011;62812;55.188;61.302;2022-10-03T16:25:21;6.93;;;1.50;;
74375;SDS011;62812;55.188;61.302;2022-10-03T16:27:51;11.93;;;1.77;;
74375;SDS011;62812;55.188;61.302;2022-10-03T16:30:25;6.05;;;1.70;;
74375;SDS011;62812;55.188;61.302;2022-10-03T16:32:58;5.43;;;1.55;;
74375;SDS011;62812;55.188;61.302;2022-10-03T16:35:30;8.73;;;1.98;;
74375;SDS011;62812;55.188;61.302;2022-10-03T16:38:01;7.65;;;1.60;;
74375;SDS011;62812;55.188;61.302;2022-10-03T16:40:31;9.18;;;1.75;;
74375;SDS011;62812;55.188;61.302;2022-10-03T16:42:59;8.75;;;1.95;;
74375;SDS011;62812;55.188;61.302;2022-10-03T16:45:38;9.73;;;1.88;;
74375;SDS011;62812;55.188;61.302;2022-10-03T16:48:11;7.60;;;1.65;;
74375;SDS011;62812;55.188;61.302;2022-10-03T16:51:02;5.57;;;1.60;;
74375;SDS011;62812;55.188;61.302;2022-10-03T16:53:29;9.80;;;2.10;;
74375;SDS011;62812;55.188;61.302;2022-10-03T16:55:57;7.07;;;2.10;;
74375;SDS011;62812;55.188;61.302;2022-10-03T16:58:31;6.65;;;1.75;;
74375;SDS011;62812;55.188;61.302;2022-10-03T17:01:03;10.77;;;1.92;;
74375;SDS011;62812;55.188;61.302;2022-10-03T17:03:34;8.15;;;1.50;;
74375;SDS011;62812;55.188;61.302;2022-10-03T17:06:06;6.53;;;1.80;;
74375;SDS011;62812;55.188;61.302;2022-10-03T17:08:41;6.30;;;2.00;;
74375;SDS011;62812;55.188;61.302;2022-10-03T17:11:11;6.90;;;1.60;;
74375;SDS011;62812;55.188;61.302;2022-10-03T17:13:43;6.70;;;1.75;;
74375;SDS011;62812;55.188;61.302;2022-10-03T17:16:13;7.50;;;2.03;;
74375;SDS011;62812;55.188;61.302;2022-10-03T17:18:53;12.45;;;1.65;;
74375;SDS011;62812;55.188;61.302;2022-10-03T17:21:30;7.05;;;1.40;;
74375;SDS011;62812;55.188;61.302;2022-10-03T17:23:59;7.28;;;1.63;;
74375;SDS011;62812;55.188;61.302;2022-10-03T17:26:32;7.55;;;1.75;;
74375;SDS011;62812;55.188;61.302;2022-10-03T17:29:06;6.88;;;1.60;;
74375;SDS011;62812;55.188;61.302;2022-10-03T17:31:42;8.25;;;1.70;;
74375;SDS011;62812;55.188;61.302;2022-10-03T17:34:12;5.30;;;1.50;;
74375;SDS011;62812;55.188;61.302;2022-10-03T17:36:55;14.32;;;1.70;;
74375;SDS011;62812;55.188;61.302;2022-10-03T17:39:54;6.35;;;1.58;;
74375;SDS011;62812;55.188;61.302;2022-10-03T17:42:29;6.15;;;1.70;;
74375;SDS011;62812;55.188;61.302;2022-10-03T17:45:04;5.97;;;1.80;;
74375;SDS011;62812;55.188;61.302;2022-10-03T17:47:42;6.75;;;1.73;;
74375;SDS011;62812;55.188;61.302;2022-10-03T17:50:17;7.15;;;1.60;;
74375;SDS011;62812;55.188;61.302;2022-10-03T17:52:48;10.63;;;1.60;;
74375;SDS011;62812;55.188;61.302;2022-10-03T17:55:19;5.22;;;1.50;;
74375;SDS011;62812;55.188;61.302;2022-10-03T17:57:49;7.78;;;1.63;;
74375;SDS011;62812;55.188;61.302;2022-10-03T18:00:19;6.45;;;1.55;;
74375;SDS011;62812;55.188;61.302;2022-10-03T18:02:53;4.80;;;1.52;;
74375;SDS011;62812;55.188;61.302;2022-10-03T18:05:24;5.43;;;1.50;;
74375;SDS011;62812;55.188;61.302;2022-10-03T18:07:54;7.38;;;1.55;;
74375;SDS011;62812;55.188;61.302;2022-10-03T18:10:23;6.57;;;1.52;;
74375;SDS011;62812;55.188;61.302;2022-10-03T18:12:56;4.20;;;1.10;;
74375;SDS011;62812;55.188;61.302;2022-10-03T18:15:40;8.27;;;1.83;;
74375;SDS011;62812;55.188;61.302;2022-10-03T18:18:46;10.20;;;1.77;;
74375;SDS011;62812;55.188;61.302;2022-10-03T18:21:34;7.65;;;2.13;;
74375;SDS011;62812;55.188;61.302;2022-10-03T18:24:14;5.40;;;1.45;;
74375;SDS011;62812;55.188;61.302;2022-10-03T18:26:52;5.63;;;2.20;;
74375;SDS011;62812;55.188;61.302;2022-10-03T18:29:29;17.88;;;2.03;;
74375;SDS011;62812;55.188;61.302;2022-10-03T18:32:10;5.30;;;1.60;;
74375;SDS011;62812;55.188;61.302;2022-10-03T18:34:42;6.47;;;1.50;;
74375;SDS011;62812;55.188;61.302;2022-10-03T18:37:48;5.20;;;1.48;;
74375;SDS011;62812;55.188;61.302;2022-10-03T18:40:21;6.22;;;1.33;;
74375;SDS011;62812;55.188;61.302;2022-10-03T18:42:51;9.35;;;1.75;;
74375;SDS011;62812;55.188;61.302;2022-10-03T18:45:19;5.20;;;1.10;;
74375;SDS011;62812;55.188;61.302;2022-10-03T18:47:52;6.45;;;1.40;;
74375;SDS011;62812;55.188;61.302;2022-10-03T18:50:25;7.65;;;1.70;;
74375;SDS011;62812;55.188;61.302;2022-10-03T18:52:56;4.68;;;1.50;;
74375;SDS011;62812;55.188;61.302;2022-10-03T18:55:40;6.57;;;1.45;;